Time;durP1;ratioP1;P1;durP2;ratioP2;P2;SDS_P1;SDS_P2;PMS_P1;PMS_P2;Temp;Humidity;BMP_temperature;BMP_pressure;BME280_temperature;BME280_humidity;BME280_pressure;Samples;Min_cycle;Max_cycle;Signal;HPM_P1;HPM_P2
2021/04/25 00:00:50;;;;;;;5.57;3.80;;;11.00;68.80;;;;;;5036379;28;20208;-73
2021/04/25 00:03:16;;;;;;;6.63;4.15;;;11.10;70.10;;;;;;5036241;28;20220;-74
2021/04/25 00:05:43;;;;;;;6.85;3.92;;;11.20;69.10;;;;;;5035825;28;20677;-73
2021/04/25 00:08:09;;;;;;;5.43;3.78;;;11.20;70.30;;;;;;5036139;28;20315;-73
2021/04/25 00:10:37;;;;;;;6.35;3.90;;;11.30;71.30;;;;;;5036155;28;20204;-73
2021/04/25 00:13:03;;;;;;;5.50;3.88;;;11.10;69.60;;;;;;5036041;28;20331;-73
2021/04/25 00:15:30;;;;;;;5.57;3.70;;;11.10;70.60;;;;;;5035907;28;20207;-73
2021/04/25 00:17:56;;;;;;;6.60;3.60;;;11.10;71.10;;;;;;5035917;28;20292;-73
2021/04/25 00:20:23;;;;;;;5.93;4.18;;;11.10;72.30;;;;;;5036042;28;20242;-73
2021/04/25 00:22:50;;;;;;;6.25;3.90;;;11.20;73.10;;;;;;5035645;28;20306;-73
2021/04/25 00:25:17;;;;;;;5.18;3.80;;;11.30;73.10;;;;;;5035889;28;20215;-73
2021/04/25 00:27:45;;;;;;;5.82;4.15;;;11.40;73.80;;;;;;5035677;28;20310;-73
2021/04/25 00:30:14;;;;;;;5.72;4.05;;;11.40;72.40;;;;;;5035812;28;20247;-73
2021/04/25 00:32:40;;;;;;;5.10;3.25;;;11.40;72.50;;;;;;5035414;28;20605;-73
2021/04/25 00:35:08;;;;;;;6.50;4.10;;;11.20;73.00;;;;;;5035782;28;20622;-73
2021/04/25 00:37:35;;;;;;;5.47;3.60;;;11.20;74.20;;;;;;5035436;28;20283;-73
2021/04/25 00:40:01;;;;;;;7.20;4.00;;;11.20;75.00;;;;;;5035662;28;20239;-73
2021/04/25 00:42:28;;;;;;;6.35;3.28;;;11.20;74.20;;;;;;5035419;28;20315;-73
2021/04/25 00:44:55;;;;;;;5.88;3.50;;;11.20;74.30;;;;;;5035595;28;20200;-73
2021/04/25 00:47:21;;;;;;;5.78;3.80;;;11.20;74.40;;;;;;5034948;28;20259;-73
2021/04/25 00:49:48;;;;;;;6.50;3.65;;;11.20;74.80;;;;;;5035456;28;20559;-73
2021/04/25 00:52:15;;;;;;;6.35;3.65;;;11.30;74.90;;;;;;5035207;28;20311;-73
2021/04/25 00:54:42;;;;;;;7.32;3.70;;;11.20;75.10;;;;;;5034432;28;20290;-73
2021/04/25 00:57:14;;;;;;;5.53;4.00;;;11.20;75.60;;;;;;5035035;28;20207;-73
2021/04/25 00:59:40;;;;;;;6.47;3.97;;;11.10;75.20;;;;;;5035245;28;20566;-73
2021/04/25 01:02:08;;;;;;;5.55;3.47;;;11.10;75.60;;;;;;5034856;28;20698;-73
2021/04/25 01:04:35;;;;;;;5.80;3.70;;;11.00;75.90;;;;;;5035238;28;20257;-73
2021/04/25 01:07:02;;;;;;;4.97;3.40;;;11.00;77.00;;;;;;5034687;28;20296;-73
2021/04/25 01:09:28;;;;;;;4.95;3.55;;;11.00;77.00;;;;;;5035090;28;20212;-73
2021/04/25 01:11:54;;;;;;;5.07;3.75;;;10.90;77.00;;;;;;5034659;28;20207;-73
2021/04/25 01:14:21;;;;;;;9.15;4.00;;;11.00;77.40;;;;;;5035038;28;20342;-73
2021/04/25 01:16:47;;;;;;;5.57;4.00;;;11.00;77.60;;;;;;5034781;28;20625;-73
2021/04/25 01:19:15;;;;;;;6.55;4.40;;;10.90;77.80;;;;;;5034692;28;20200;-73
2021/04/25 01:21:42;;;;;;;6.68;3.80;;;10.90;78.90;;;;;;5034840;28;20207;-73
2021/04/25 01:24:09;;;;;;;7.18;3.60;;;10.80;78.90;;;;;;5034832;28;20604;-73
2021/04/25 01:26:36;;;;;;;6.18;3.55;;;10.80;79.10;;;;;;5034382;28;20258;-73
2021/04/25 01:29:03;;;;;;;5.97;3.80;;;10.70;79.10;;;;;;5034706;28;20255;-73
2021/04/25 01:31:29;;;;;;;7.30;4.85;;;10.60;79.60;;;;;;5034328;28;20211;-74
2021/04/25 01:33:55;;;;;;;7.35;4.00;;;10.60;80.00;;;;;;5034658;28;20316;-73
2021/04/25 01:36:22;;;;;;;5.78;4.00;;;10.60;80.00;;;;;;5034296;28;20605;-73
2021/04/25 01:38:49;;;;;;;6.00;3.67;;;10.50;80.00;;;;;;5034403;28;20695;-73
2021/04/25 01:41:15;;;;;;;6.70;4.47;;;10.40;80.90;;;;;;5034396;28;20295;-73
2021/04/25 01:43:42;;;;;;;5.90;3.78;;;10.50;81.30;;;;;;5034125;28;20334;-73
2021/04/25 01:46:08;;;;;;;5.15;3.90;;;10.30;81.20;;;;;;5034216;28;20299;-72
2021/04/25 01:48:34;;;;;;;5.15;3.47;;;10.20;82.70;;;;;;5034149;28;20200;-73
2021/04/25 01:51:01;;;;;;;7.97;4.20;;;10.20;83.50;;;;;;5034355;28;20675;-73
2021/04/25 01:53:27;;;;;;;7.03;4.28;;;10.20;83.60;;;;;;5034072;28;20228;-73
2021/04/25 01:55:55;;;;;;;7.43;4.20;;;10.20;83.40;;;;;;5033981;28;20204;-73
2021/04/25 01:58:21;;;;;;;6.05;4.13;;;10.10;83.60;;;;;;5034060;28;20239;-73
2021/04/25 02:00:47;;;;;;;6.85;4.13;;;10.20;83.80;;;;;;5034129;28;20295;-73
2021/04/25 02:03:15;;;;;;;6.53;4.38;;;10.20;83.30;;;;;;5034085;28;20319;-73
2021/04/25 02:05:42;;;;;;;6.00;3.80;;;10.20;83.50;;;;;;5033624;28;20299;-72
2021/04/25 02:08:10;;;;;;;8.05;4.30;;;10.30;83.60;;;;;;5034016;28;20206;-73
2021/04/25 02:10:39;;;;;;;6.22;4.57;;;10.30;83.50;;;;;;5033929;28;20204;-73
2021/04/25 02:13:07;;;;;;;5.78;3.75;;;10.20;84.20;;;;;;5033945;28;20226;-73
2021/04/25 02:15:34;;;;;;;6.47;4.18;;;10.20;84.40;;;;;;5033721;28;20291;-73
2021/04/25 02:18:00;;;;;;;5.75;3.72;;;10.20;85.00;;;;;;5033621;28;20255;-73
2021/04/25 02:20:27;;;;;;;7.10;4.05;;;10.20;85.00;;;;;;5033764;28;20210;-73
2021/04/25 02:22:54;;;;;;;8.45;3.60;;;10.20;84.60;;;;;;5033617;28;20318;-73
2021/04/25 02:25:21;;;;;;;8.13;4.47;;;10.10;85.80;;;;;;5033288;28;20295;-73
2021/04/25 02:27:48;;;;;;;4.38;3.75;;;10.00;86.20;;;;;;5033756;28;20299;-73
2021/04/25 02:30:18;;;;;;;6.18;4.60;;;9.90;88.10;;;;;;5033522;28;20203;-73
2021/04/25 02:32:44;;;;;;;8.00;5.15;;;9.80;88.20;;;;;;5033093;28;20242;-73
2021/04/25 02:35:12;;;;;;;4.90;3.95;;;9.80;89.20;;;;;;5033379;28;20230;-73
2021/04/25 02:37:39;;;;;;;8.02;4.00;;;9.80;89.00;;;;;;5033256;28;20263;-73
2021/04/25 02:40:07;;;;;;;5.45;4.43;;;9.80;89.90;;;;;;5033338;28;20294;-73
2021/04/25 02:42:33;;;;;;;5.85;4.30;;;9.60;89.60;;;;;;5032989;28;20699;-73
2021/04/25 02:45:00;;;;;;;4.82;3.55;;;9.60;90.20;;;;;;5033298;28;20295;-73
2021/04/25 02:47:27;;;;;;;5.97;4.05;;;9.70;90.40;;;;;;5033183;28;20295;-73
2021/04/25 02:49:54;;;;;;;7.07;4.22;;;9.70;90.50;;;;;;5033517;28;20203;-73
2021/04/25 02:52:25;;;;;;;5.43;3.70;;;9.70;90.60;;;;;;5033306;28;20251;-73
2021/04/25 02:54:51;;;;;;;5.10;4.03;;;9.70;90.70;;;;;;5033469;28;20573;-73
2021/04/25 02:57:18;;;;;;;5.75;4.03;;;9.60;90.70;;;;;;5032990;28;20230;-73
2021/04/25 02:59:44;;;;;;;4.60;3.80;;;9.60;90.80;;;;;;5033420;28;20616;-73
2021/04/25 03:02:10;;;;;;;7.32;4.43;;;9.40;91.30;;;;;;5033321;28;20589;-73
2021/04/25 03:04:38;;;;;;;7.03;4.00;;;9.30;91.50;;;;;;5033363;28;20358;-73
2021/04/25 03:07:04;;;;;;;7.65;4.00;;;9.30;91.80;;;;;;5033287;28;20208;-73
2021/04/25 03:09:30;;;;;;;5.68;4.35;;;9.20;92.00;;;;;;5033099;28;20204;-73
2021/04/25 03:11:57;;;;;;;7.18;4.35;;;9.20;92.00;;;;;;5033191;28;20206;-73
2021/04/25 03:14:23;;;;;;;5.82;3.90;;;9.20;92.20;;;;;;5033280;28;20201;-73
2021/04/25 03:16:49;;;;;;;7.70;4.53;;;9.20;92.50;;;;;;5033653;28;20204;-73
2021/04/25 03:19:16;;;;;;;8.43;4.38;;;9.20;92.40;;;;;;5037008;28;20224;-73
2021/04/25 03:21:43;;;;;;;8.32;3.95;;;9.30;92.30;;;;;;5037169;28;20637;-73
2021/04/25 03:24:09;;;;;;;5.72;4.45;;;9.20;92.30;;;;;;5037118;28;20295;-73
2021/04/25 03:26:36;;;;;;;6.35;3.50;;;9.20;92.30;;;;;;5036704;28;20210;-73
2021/04/25 03:29:03;;;;;;;6.15;4.60;;;9.20;92.40;;;;;;5036984;28;20664;-73
2021/04/25 03:31:29;;;;;;;6.90;4.30;;;9.10;92.50;;;;;;5036820;28;20240;-73
2021/04/25 03:33:56;;;;;;;8.18;4.35;;;9.10;92.80;;;;;;5036616;28;20315;-73
2021/04/25 03:36:22;;;;;;;6.35;4.10;;;9.10;92.70;;;;;;5036698;28;20349;-73
2021/04/25 03:38:49;;;;;;;6.32;3.95;;;9.20;92.70;;;;;;5036672;28;20322;-73
2021/04/25 03:41:15;;;;;;;5.38;4.00;;;9.20;92.80;;;;;;5036767;28;20210;-74
2021/04/25 03:43:42;;;;;;;9.82;4.80;;;9.20;92.80;;;;;;5036697;28;20235;-74
2021/04/25 03:46:08;;;;;;;6.00;4.07;;;9.00;93.30;;;;;;5036438;28;20266;-73
2021/04/25 03:48:35;;;;;;;7.43;4.47;;;9.00;93.70;;;;;;5036559;28;20204;-73
2021/04/25 03:51:01;;;;;;;7.82;4.55;;;9.00;93.60;;;;;;5036353;28;20204;-73
2021/04/25 03:53:27;;;;;;;7.10;5.28;;;9.00;93.90;;;;;;5036495;28;20275;-73
2021/04/25 03:55:54;;;;;;;6.10;4.10;;;8.80;93.80;;;;;;5036127;28;20315;-73
2021/04/25 03:58:21;;;;;;;7.43;5.60;;;8.80;93.70;;;;;;5036286;28;20741;-73
2021/04/25 04:00:47;;;;;;;4.75;4.05;;;8.80;94.20;;;;;;5036323;28;20677;-74
2021/04/25 04:03:13;;;;;;;6.55;4.45;;;8.90;94.20;;;;;;5036398;28;20629;-73
2021/04/25 04:05:40;;;;;;;8.25;4.60;;;9.00;94.20;;;;;;5035972;28;20293;-73
2021/04/25 04:08:06;;;;;;;6.07;3.80;;;8.90;93.80;;;;;;5036290;28;20286;-73
2021/04/25 04:10:32;;;;;;;6.43;4.22;;;8.90;94.10;;;;;;5036070;28;20702;-73
2021/04/25 04:12:59;;;;;;;4.45;3.85;;;8.80;94.00;;;;;;5035975;28;20267;-73
2021/04/25 04:15:26;;;;;;;7.80;4.22;;;8.80;94.30;;;;;;5035716;28;20226;-73
2021/04/25 04:17:52;;;;;;;7.70;4.50;;;8.80;94.10;;;;;;5035740;28;20224;-73
2021/04/25 04:20:19;;;;;;;5.60;4.00;;;8.80;94.40;;;;;;5036006;28;20200;-73
2021/04/25 04:22:45;;;;;;;7.28;4.70;;;8.80;94.60;;;;;;5035876;28;20651;-73
2021/04/25 04:25:12;;;;;;;8.38;5.50;;;8.80;94.60;;;;;;5035698;28;20200;-73
2021/04/25 04:27:39;;;;;;;7.95;4.68;;;8.80;94.60;;;;;;5035648;28;20200;-73
2021/04/25 04:30:08;;;;;;;7.68;4.20;;;8.80;94.50;;;;;;5035808;28;20295;-73
2021/04/25 04:32:34;;;;;;;6.95;4.80;;;8.80;94.80;;;;;;5035540;28;20250;-73
2021/04/25 04:35:01;;;;;;;7.03;4.70;;;8.70;94.80;;;;;;5035767;28;20206;-73
2021/04/25 04:37:27;;;;;;;5.75;3.95;;;8.70;95.00;;;;;;5035459;28;20235;-72
2021/04/25 04:39:54;;;;;;;7.65;5.03;;;8.60;95.10;;;;;;5035702;28;20307;-72
2021/04/25 04:42:20;;;;;;;9.50;4.80;;;8.70;95.20;;;;;;5035560;28;20226;-73
2021/04/25 04:44:46;;;;;;;5.68;4.28;;;8.50;95.40;;;;;;5035286;28;20745;-72
2021/04/25 04:47:14;;;;;;;5.70;4.28;;;8.50;95.20;;;;;;5035319;28;20208;-72
2021/04/25 04:49:40;;;;;;;5.38;4.40;;;8.40;95.60;;;;;;5035395;28;20230;-72
2021/04/25 04:52:06;;;;;;;6.10;4.70;;;8.50;96.20;;;;;;5035344;28;20281;-73
2021/04/25 04:54:33;;;;;;;11.52;4.60;;;8.50;96.30;;;;;;5035206;28;20290;-72
2021/04/25 04:57:00;;;;;;;8.30;4.63;;;8.60;96.30;;;;;;5035029;28;20601;-73
2021/04/25 04:59:26;;;;;;;7.57;5.32;;;8.60;96.20;;;;;;5035224;28;20250;-72
2021/04/25 05:01:52;;;;;;;7.93;4.78;;;8.60;96.00;;;;;;5034963;28;20207;-73
2021/04/25 05:04:19;;;;;;;7.00;4.55;;;8.60;96.20;;;;;;5035022;28;20299;-73
2021/04/25 05:06:46;;;;;;;7.88;4.97;;;8.70;96.20;;;;;;5035038;28;20598;-72
2021/04/25 05:09:12;;;;;;;7.78;5.00;;;8.80;96.20;;;;;;5035118;28;20196;-72
2021/04/25 05:11:38;;;;;;;8.15;4.43;;;8.80;96.00;;;;;;5035059;28;20212;-72
2021/04/25 05:14:04;;;;;;;8.55;5.63;;;8.70;95.90;;;;;;5034708;28;20234;-72
2021/04/25 05:16:31;;;;;;;5.63;4.22;;;8.70;96.10;;;;;;5034813;28;20203;-72
2021/04/25 05:18:57;;;;;;;7.35;5.50;;;8.80;96.00;;;;;;5034891;28;20315;-72
2021/04/25 05:21:24;;;;;;;8.90;6.05;;;8.80;96.00;;;;;;5034907;28;20600;-72
2021/04/25 05:23:51;;;;;;;9.30;5.13;;;8.90;95.60;;;;;;5034842;28;20367;-72
2021/04/25 05:26:17;;;;;;;8.80;4.95;;;9.00;95.30;;;;;;5034574;28;20204;-73
2021/04/25 05:28:43;;;;;;;7.80;5.65;;;9.00;95.50;;;;;;5034837;28;20200;-73
2021/04/25 05:31:10;;;;;;;8.23;5.45;;;8.90;95.90;;;;;;5034715;28;20203;-73
2021/04/25 05:33:36;;;;;;;9.05;5.00;;;9.00;95.60;;;;;;5034344;28;20264;-72
2021/04/25 05:36:02;;;;;;;7.72;4.80;;;8.90;95.80;;;;;;5034366;28;20291;-73
2021/04/25 05:38:30;;;;;;;8.23;5.90;;;9.00;96.90;;;;;;5034382;28;20224;-73
2021/04/25 05:40:56;;;;;;;7.50;5.30;;;8.80;95.70;;;;;;5034006;28;20673;-73
2021/04/25 05:43:22;;;;;;;7.85;5.35;;;8.60;95.90;;;;;;5034169;28;20782;-73
2021/04/25 05:45:49;;;;;;;8.52;5.47;;;8.50;96.40;;;;;;5034205;28;20577;-72
2021/04/25 05:48:15;;;;;;;7.90;5.75;;;8.50;96.90;;;;;;5034225;28;20215;-73
2021/04/25 05:50:41;;;;;;;7.55;5.75;;;8.50;97.30;;;;;;5034285;28;20290;-73
2021/04/25 05:53:08;;;;;;;9.93;5.70;;;8.60;97.20;;;;;;5034114;28;20318;-73
2021/04/25 05:55:35;;;;;;;8.00;6.10;;;8.50;97.00;;;;;;5034124;28;20656;-72
2021/04/25 05:58:01;;;;;;;10.30;5.70;;;8.50;97.30;;;;;;5034124;28;20231;-72
2021/04/25 06:00:30;;;;;;;8.50;5.90;;;8.60;97.80;;;;;;5034162;28;20277;-73
2021/04/25 06:02:56;;;;;;;10.23;5.95;;;8.50;96.80;;;;;;5033798;28;20228;-73
2021/04/25 06:05:23;;;;;;;9.77;5.80;;;8.30;97.40;;;;;;5033986;28;20253;-72
2021/04/25 06:07:50;;;;;;;10.40;5.50;;;8.30;98.00;;;;;;5034044;28;20306;-73
2021/04/25 06:10:18;;;;;;;8.82;6.50;;;8.40;98.30;;;;;;5033986;28;20307;-73
2021/04/25 06:12:48;;;;;;;11.07;6.70;;;8.50;98.30;;;;;;5033940;28;20235;-73
2021/04/25 06:15:15;;;;;;;8.32;5.50;;;8.40;97.70;;;;;;5033742;28;20705;-72
2021/04/25 06:17:41;;;;;;;12.45;6.72;;;8.50;98.20;;;;;;5033746;28;20315;-73
2021/04/25 06:20:09;;;;;;;10.75;6.28;;;8.40;97.90;;;;;;5033868;28;20204;-72
2021/04/25 06:22:35;;;;;;;9.13;6.20;;;8.40;98.30;;;;;;5033680;28;20220;-72
2021/04/25 06:25:02;;;;;;;11.32;6.13;;;8.40;98.40;;;;;;5033802;28;20290;-72
2021/04/25 06:27:28;;;;;;;9.30;6.28;;;8.50;98.50;;;;;;5033576;28;20283;-73
2021/04/25 06:29:56;;;;;;;10.82;7.07;;;8.60;98.70;;;;;;5033744;28;20257;-73
2021/04/25 06:32:22;;;;;;;9.80;6.75;;;8.60;98.40;;;;;;5033405;28;20236;-73
2021/04/25 06:34:49;;;;;;;10.02;6.88;;;8.70;98.00;;;;;;5033731;28;20226;-72
2021/04/25 06:37:15;;;;;;;13.98;7.35;;;8.80;98.10;;;;;;5033205;28;20227;-73
2021/04/25 06:39:41;;;;;;;14.13;7.20;;;8.80;98.10;;;;;;5033545;28;20224;-72
2021/04/25 06:42:08;;;;;;;10.85;8.02;;;8.80;97.80;;;;;;5033516;28;20280;-73
2021/04/25 06:44:34;;;;;;;13.90;8.30;;;8.90;97.80;;;;;;5033631;28;20208;-72
2021/04/25 06:47:01;;;;;;;14.50;8.32;;;9.00;97.90;;;;;;5033412;28;20295;-73
2021/04/25 06:49:28;;;;;;;13.25;8.70;;;9.20;97.70;;;;;;5033433;28;20204;-72
2021/04/25 06:51:55;;;;;;;14.85;7.80;;;9.40;97.00;;;;;;5034333;28;20262;-72
2021/04/25 06:54:21;;;;;;;12.70;8.07;;;9.60;96.50;;;;;;5037761;28;20607;-72
2021/04/25 06:56:48;;;;;;;19.15;7.85;;;9.60;96.10;;;;;;5037437;28;20299;-72
2021/04/25 06:59:14;;;;;;;12.15;8.30;;;9.70;96.00;;;;;;5037471;28;20274;-72
2021/04/25 07:01:40;;;;;;;12.45;8.05;;;9.60;96.00;;;;;;5037485;28;20204;-72
2021/04/25 07:04:08;;;;;;;12.52;9.05;;;9.70;96.10;;;;;;5037391;28;20230;-73
2021/04/25 07:06:34;;;;;;;12.27;8.68;;;9.70;95.90;;;;;;5037551;28;20206;-72
2021/04/25 07:09:00;;;;;;;12.63;9.75;;;9.70;95.80;;;;;;5037132;28;20195;-72
2021/04/25 07:11:27;;;;;;;16.48;9.52;;;9.80;95.80;;;;;;5037391;28;20300;-72
2021/04/25 07:13:53;;;;;;;12.60;8.75;;;9.80;95.70;;;;;;5037314;28;20358;-72
2021/04/25 07:16:19;;;;;;;15.80;9.75;;;9.90;95.90;;;;;;5036896;28;20242;-72
2021/04/25 07:18:46;;;;;;;12.55;9.15;;;9.90;95.10;;;;;;5037223;28;20311;-72
2021/04/25 07:21:13;;;;;;;15.35;9.25;;;9.80;95.40;;;;;;5036939;28;20249;-72
2021/04/25 07:23:39;;;;;;;16.80;9.95;;;9.80;96.00;;;;;;5037112;28;20306;-72
2021/04/25 07:26:08;;;;;;;14.15;9.50;;;9.80;95.60;;;;;;5036620;28;20295;-72
2021/04/25 07:28:36;;;;;;;15.30;9.40;;;9.90;96.10;;;;;;5037014;28;20600;-73
2021/04/25 07:31:02;;;;;;;17.95;9.93;;;10.00;95.10;;;;;;5036893;28;20269;-73
2021/04/25 07:33:29;;;;;;;16.10;10.23;;;10.20;94.80;;;;;;5036439;28;20832;-72
2021/04/25 07:35:56;;;;;;;14.38;10.32;;;10.30;94.20;;;;;;5036542;28;20215;-72
2021/04/25 07:38:23;;;;;;;17.58;10.60;;;10.40;93.90;;;;;;5036619;28;20743;-73
2021/04/25 07:40:50;;;;;;;13.35;9.02;;;10.40;93.70;;;;;;5036806;28;20218;-72
2021/04/25 07:43:16;;;;;;;15.38;10.05;;;10.40;93.60;;;;;;5036682;28;20318;-72
2021/04/25 07:45:42;;;;;;;15.90;9.98;;;10.40;93.60;;;;;;5036650;28;20290;-72
2021/04/25 07:48:10;;;;;;;15.35;9.70;;;10.60;93.70;;;;;;5036628;28;20557;-72
2021/04/25 07:50:36;;;;;;;14.73;10.10;;;10.80;93.20;;;;;;5036406;28;20204;-73
2021/04/25 07:53:05;;;;;;;15.82;10.20;;;11.00;93.10;;;;;;5036258;28;20257;-73
2021/04/25 07:55:32;;;;;;;18.13;9.35;;;11.00;92.60;;;;;;5036337;28;20547;-73
2021/04/25 07:57:59;;;;;;;13.27;9.60;;;10.70;92.80;;;;;;5036360;28;20310;-73
2021/04/25 08:00:25;;;;;;;16.25;10.43;;;10.80;92.80;;;;;;5036420;28;20667;-73
2021/04/25 08:02:51;;;;;;;16.90;10.63;;;11.10;92.80;;;;;;5035951;28;20306;-73
2021/04/25 08:05:18;;;;;;;17.50;9.75;;;11.50;91.70;;;;;;5036332;28;20240;-73
2021/04/25 08:07:45;;;;;;;12.98;9.60;;;12.40;90.80;;;;;;5036327;28;20386;-73
2021/04/25 08:10:12;;;;;;;15.73;10.43;;;13.80;88.20;;;;;;5036261;28;20211;-73
2021/04/25 08:12:39;;;;;;;13.95;9.93;;;15.20;76.60;;;;;;5036047;28;20230;-73
2021/04/25 08:15:07;;;;;;;12.85;9.63;;;15.80;74.20;;;;;;5035894;28;20298;-73
2021/04/25 08:17:33;;;;;;;14.20;10.07;;;16.40;71.90;;;;;;5035876;28;20294;-73
2021/04/25 08:20:00;;;;;;;13.90;8.90;;;16.70;68.10;;;;;;5036130;28;20252;-73
2021/04/25 08:22:26;;;;;;;15.25;9.77;;;16.90;65.70;;;;;;5036221;28;20795;-73
2021/04/25 08:24:52;;;;;;;15.93;9.82;;;16.70;64.40;;;;;;5036060;28;20214;-73
2021/04/25 08:27:19;;;;;;;15.10;10.48;;;16.30;64.90;;;;;;5035693;28;20206;-73
2021/04/25 08:29:46;;;;;;;14.18;11.05;;;15.60;64.60;;;;;;5035884;28;20299;-73
2021/04/25 08:32:12;;;;;;;14.00;9.30;;;15.10;66.80;;;;;;5035706;28;20242;-73
2021/04/25 08:34:39;;;;;;;15.02;11.00;;;14.50;68.30;;;;;;5035982;28;20200;-73
2021/04/25 08:37:05;;;;;;;14.32;10.55;;;13.90;71.10;;;;;;5035472;28;20294;-73
2021/04/25 08:39:31;;;;;;;14.07;9.70;;;13.40;74.30;;;;;;5035639;28;20318;-73
2021/04/25 08:41:58;;;;;;;17.40;11.63;;;13.30;76.10;;;;;;5035626;28;20298;-73
2021/04/25 08:44:25;;;;;;;15.00;10.95;;;13.20;76.40;;;;;;5035648;28;20290;-73
2021/04/25 08:46:53;;;;;;;15.20;10.57;;;13.50;76.70;;;;;;5035452;28;20297;-73
2021/04/25 08:49:23;;;;;;;16.00;10.55;;;14.30;75.70;;;;;;5035337;28;20200;-73
2021/04/25 08:51:50;;;;;;;15.23;10.48;;;14.80;72.60;;;;;;5035309;28;20295;-73
2021/04/25 08:54:17;;;;;;;14.65;9.60;;;15.00;70.50;;;;;;5035477;28;20205;-73
2021/04/25 08:56:44;;;;;;;14.20;11.20;;;15.30;70.30;;;;;;5034918;28;20213;-73
2021/04/25 08:59:13;;;;;;;14.95;10.35;;;15.60;67.90;;;;;;5035072;28;20735;-73
2021/04/25 09:01:39;;;;;;;15.63;10.13;;;15.70;66.70;;;;;;5035314;28;20601;-73
2021/04/25 09:04:06;;;;;;;14.43;10.05;;;16.50;64.90;;;;;;5035754;28;20224;-73
2021/04/25 09:06:32;;;;;;;14.55;11.15;;;16.70;63.50;;;;;;5034869;28;20291;-73
2021/04/25 09:09:01;;;;;;;12.25;9.68;;;17.40;63.20;;;;;;5035058;28;20730;-73
2021/04/25 09:11:30;;;;;;;13.00;9.17;;;19.60;57.80;;;;;;5035081;28;20239;-74
2021/04/25 09:14:20;;;;;;;10.30;8.73;;;21.70;53.40;;;;;;5034670;28;20467;-74
2021/04/25 09:16:57;;;;;;;10.03;8.83;;;24.20;47.40;;;;;;5034862;28;20513;-74
2021/04/25 09:19:25;;;;;;;12.37;9.67;;;25.50;42.80;;;;;;5034917;28;20489;-74
2021/04/25 09:21:59;;;;;;;11.70;8.33;;;24.60;38.20;;;;;;5034767;28;20435;-74
2021/04/25 09:24:28;;;;;;;10.60;8.90;;;24.90;40.00;;;;;;5034967;28;20519;-74
2021/04/25 09:26:55;;;;;;;9.70;8.23;;;24.90;39.50;;;;;;5034441;28;20450;-74
2021/04/25 09:29:22;;;;;;;9.97;7.93;;;25.10;38.70;;;;;;5034647;28;20521;-74
2021/04/25 09:31:50;;;;;;;9.53;7.27;;;25.40;37.80;;;;;;5034503;28;20461;-74
2021/04/25 09:34:25;;;;;;;8.97;7.90;;;25.20;37.70;;;;;;5034409;28;20896;-73
2021/04/25 09:36:52;;;;;;;11.13;7.60;;;24.90;36.40;;;;;;5034468;28;20449;-74
2021/04/25 09:39:19;;;;;;;8.90;7.37;;;25.20;37.50;;;;;;5034485;28;20509;-74
2021/04/25 09:41:47;;;;;;;9.00;7.20;;;25.60;36.70;;;;;;5034531;28;20493;-74
2021/04/25 09:44:30;;;;;;;8.83;7.70;;;24.50;37.90;;;;;;5034255;28;20489;-73
2021/04/25 09:47:00;;;;;;;10.63;6.90;;;21.90;38.40;;;;;;5034045;28;20515;-73
2021/04/25 09:49:42;;;;;;;9.70;7.70;;;20.40;41.70;;;;;;5034377;28;20475;-74
2021/04/25 09:52:10;;;;;;;10.10;7.80;;;22.30;42.20;;;;;;5034268;28;20505;-74
2021/04/25 09:54:37;;;;;;;9.97;8.33;;;22.80;40.80;;;;;;5034366;28;20871;-74
2021/04/25 09:57:03;;;;;;;9.83;8.30;;;24.90;39.50;;;;;;5033770;28;20534;-74
2021/04/25 09:59:30;;;;;;;8.73;7.80;;;26.00;37.90;;;;;;5034043;28;20490;-74
2021/04/25 10:02:07;;;;;;;7.70;6.57;;;27.00;35.00;;;;;;5034132;28;20450;-74
2021/04/25 10:04:37;;;;;;;7.27;6.57;;;26.70;35.00;;;;;;5033936;28;20948;-74
2021/04/25 10:07:06;;;;;;;8.53;6.63;;;26.20;33.70;;;;;;5033906;28;20453;-74
2021/04/25 10:09:32;;;;;;;9.60;6.90;;;25.20;34.00;;;;;;5034042;28;20584;-74
2021/04/25 10:12:00;;;;;;;10.17;7.17;;;25.60;35.70;;;;;;5033858;28;20489;-74
2021/04/25 10:14:30;;;;;;;9.10;8.13;;;25.60;36.20;;;;;;5034063;28;20817;-74
2021/04/25 10:16:57;;;;;;;9.37;7.83;;;24.60;34.70;;;;;;5033620;28;20482;-73
2021/04/25 10:19:24;;;;;;;10.63;8.20;;;23.60;37.50;;;;;;5033813;28;20479;-74
2021/04/25 10:21:51;;;;;;;8.57;7.67;;;23.40;39.40;;;;;;5033820;28;20528;-74
2021/04/25 10:24:20;;;;;;;8.53;7.73;;;24.60;37.90;;;;;;5033808;28;20475;-74
2021/04/25 10:27:02;;;;;;;10.23;8.50;;;24.10;37.70;;;;;;5033204;28;20454;-74
2021/04/25 10:29:33;;;;;;;12.13;8.03;;;23.70;37.50;;;;;;5033635;28;20472;-74
2021/04/25 10:32:02;;;;;;;10.63;8.30;;;23.80;38.50;;;;;;5033663;28;20528;-74
2021/04/25 10:34:28;;;;;;;10.13;7.83;;;22.40;38.20;;;;;;5033707;28;20454;-73
2021/04/25 10:37:02;;;;;;;11.83;7.63;;;21.70;39.60;;;;;;5033292;28;20912;-73
2021/04/25 10:39:38;;;;;;;8.60;7.27;;;21.90;39.30;;;;;;5033313;28;21062;-74
2021/04/25 10:42:27;;;;;;;8.10;7.00;;;23.40;39.40;;;;;;5033604;28;20452;-74
2021/04/25 10:45:24;;;;;;;7.50;6.70;;;25.20;37.10;;;;;;5033715;28;20438;-74
2021/04/25 10:48:21;;;;;;;9.47;7.00;;;27.30;35.30;;;;;;5033310;28;20939;-74
2021/04/25 10:50:49;;;;;;;7.10;6.40;;;26.00;33.20;;;;;;5033494;28;20446;-74
2021/04/25 10:53:31;;;;;;;7.00;6.27;;;25.90;35.80;;;;;;5033464;28;20554;-74
2021/04/25 10:56:35;;;;;;;11.40;6.67;;;25.70;33.30;;;;;;5033363;28;20487;-73
2021/04/25 10:59:23;;;;;;;7.30;6.40;;;24.10;35.00;;;;;;5033094;28;20484;-73
2021/04/25 11:01:49;;;;;;;6.53;5.70;;;21.40;37.00;;;;;;5033352;28;20540;-74
2021/04/25 11:04:53;;;;;;;7.33;6.20;;;22.00;38.40;;;;;;5033211;28;21019;-74
2021/04/25 11:07:49;;;;;;;8.60;6.70;;;23.30;37.70;;;;;;5033231;28;20862;-73
2021/04/25 11:10:20;;;;;;;7.70;5.87;;;22.60;37.50;;;;;;5033090;28;20941;-74
2021/04/25 11:12:48;;;;;;;8.40;6.57;;;22.70;38.80;;;;;;5033370;28;20470;-74
2021/04/25 11:15:48;;;;;;;10.30;6.20;;;22.50;39.60;;;;;;5033315;28;20443;-74
2021/04/25 11:18:43;;;;;;;7.97;6.57;;;22.50;38.60;;;;;;5029044;28;21053;-74
2021/04/25 11:21:52;;;;;;;8.37;6.10;;;21.40;40.30;;;;;;5033046;28;21049;-74
2021/04/25 11:24:33;;;;;;;7.43;5.90;;;20.40;41.70;;;;;;5033041;28;21043;-73
2021/04/25 11:27:01;;;;;;;8.57;5.72;;;19.40;42.80;;;;;;5032845;28;20291;-73
2021/04/25 11:29:59;;;;;;;9.00;5.68;;;17.60;41.60;;;;;;5032916;28;20654;-73
2021/04/25 11:32:38;;;;;;;5.95;5.03;;;17.30;43.40;;;;;;5033044;28;20328;-74
2021/04/25 11:35:21;;;;;;;8.07;5.35;;;17.30;44.60;;;;;;5033158;28;20188;-73
2021/04/25 11:37:48;;;;;;;8.30;6.00;;;17.40;45.20;;;;;;5033595;28;20713;-73
2021/04/25 11:40:23;;;;;;;7.57;5.65;;;17.20;44.40;;;;;;5036687;28;20207;-73
2021/04/25 11:42:50;;;;;;;6.70;5.38;;;17.00;44.00;;;;;;5036610;28;20231;-73
2021/04/25 11:45:28;;;;;;;7.68;4.75;;;17.00;45.40;;;;;;5036465;28;20261;-73
2021/04/25 11:47:57;;;;;;;6.05;4.47;;;17.40;45.60;;;;;;5036706;28;20569;-73
2021/04/25 11:50:32;;;;;;;7.28;5.22;;;17.70;45.60;;;;;;5036386;28;20712;-73
2021/04/25 11:52:58;;;;;;;7.07;4.10;;;17.80;44.20;;;;;;5036381;28;20315;-73
2021/04/25 11:55:24;;;;;;;6.38;4.60;;;18.00;44.50;;;;;;5036429;28;20208;-73
2021/04/25 11:57:51;;;;;;;8.30;5.20;;;18.30;43.70;;;;;;5036327;28;20210;-74
2021/04/25 12:00:21;;;;;;;5.28;4.25;;;18.60;42.70;;;;;;5036456;28;20619;-74
2021/04/25 12:02:51;;;;;;;5.38;4.82;;;18.60;42.00;;;;;;5036130;28;20635;-74
2021/04/25 12:05:20;;;;;;;4.80;4.20;;;18.10;41.00;;;;;;5036155;28;20749;-73
2021/04/25 12:07:49;;;;;;;6.30;3.80;;;17.50;41.80;;;;;;5036344;28;20299;-73
2021/04/25 12:10:25;;;;;;;5.70;4.32;;;17.50;42.90;;;;;;5036263;28;20615;-73
2021/04/25 12:13:14;;;;;;;6.97;4.45;;;17.70;44.20;;;;;;5036855;28;20288;-73
2021/04/25 12:15:44;;;;;;;5.05;3.90;;;18.20;43.20;;;;;;5030872;28;20200;-73
2021/04/25 12:18:12;;;;;;;5.63;4.20;;;18.40;41.80;;;;;;5035868;28;20290;-73
2021/04/25 12:20:41;;;;;;;5.72;4.50;;;17.70;41.90;;;;;;5035944;28;20238;-73
2021/04/25 12:23:08;;;;;;;5.15;4.18;;;16.90;42.20;;;;;;5035935;28;20310;-73
2021/04/25 12:25:35;;;;;;;5.18;3.70;;;16.70;42.40;;;;;;5035764;28;20206;-73
2021/04/25 12:28:01;;;;;;;4.53;3.90;;;16.80;43.60;;;;;;5034811;28;20440;-73
2021/04/25 12:30:29;;;;;;;5.65;3.53;;;17.20;43.50;;;;;;5035684;28;20718;-73
2021/04/25 12:33:09;;;;;;;3.65;3.30;;;17.70;43.40;;;;;;5035410;28;20232;-73
2021/04/25 12:35:39;;;;;;;5.28;3.65;;;18.20;42.70;;;;;;5035599;28;20275;-73
2021/04/25 12:38:23;;;;;;;4.38;3.80;;;18.40;40.20;;;;;;5035616;28;20298;-73
2021/04/25 12:41:05;;;;;;;4.00;3.55;;;18.30;40.80;;;;;;5035694;28;20311;-73
2021/04/25 12:43:32;;;;;;;3.78;3.30;;;18.50;40.50;;;;;;5035593;28;20313;-73
2021/04/25 12:46:10;;;;;;;6.47;3.65;;;18.80;40.20;;;;;;5035462;28;20200;-73
2021/04/25 12:48:38;;;;;;;4.57;3.38;;;18.70;39.50;;;;;;5035263;28;20204;-73
2021/04/25 12:51:20;;;;;;;4.90;3.58;;;18.50;39.80;;;;;;5034649;28;20574;-73
2021/04/25 12:54:00;;;;;;;5.60;2.95;;;18.00;39.20;;;;;;5035510;28;20307;-73
2021/04/25 12:56:29;;;;;;;4.97;3.80;;;17.90;39.10;;;;;;5035108;28;20301;-73